sensor_id;sensor_type;location;lat;lon;timestamp;P1;durP1;ratioP1;P2;durP2;ratioP2
14015;SDS011;7083;48.854;9.158;2023-05-10T00:02:03;1999.90;;;999.90;;
14015;SDS011;7083;48.854;9.158;2023-05-10T00:04:30;1999.90;;;999.90;;
14015;SDS011;7083;48.854;9.158;2023-05-10T00:06:57;1999.90;;;999.90;;
14015;SDS011;7083;48.854;9.158;2023-05-10T00:09:26;1999.90;;;999.90;;
14015;SDS011;7083;48.854;9.158;2023-05-10T00:11:53;1999.90;;;999.90;;
14015;SDS011;7083;48.854;9.158;2023-05-10T00:14:20;1999.90;;;999.90;;
14015;SDS011;7083;48.854;9.158;2023-05-10T00:16:47;1999.90;;;999.90;;
14015;SDS011;7083;48.854;9.158;2023-05-10T00:19:14;1999.90;;;999.90;;
14015;SDS011;7083;48.854;9.158;2023-05-10T00:21:41;1999.90;;;999.90;;
14015;SDS011;7083;48.854;9.158;2023-05-10T00:24:08;1999.90;;;999.90;;
14015;SDS011;7083;48.854;9.158;2023-05-10T00:26:36;1999.90;;;999.90;;
14015;SDS011;7083;48.854;9.158;2023-05-10T00:29:03;1999.90;;;999.90;;
14015;SDS011;7083;48.854;9.158;2023-05-10T00:31:30;1999.90;;;999.90;;
14015;SDS011;7083;48.854;9.158;2023-05-10T00:33:57;1999.90;;;999.90;;
14015;SDS011;7083;48.854;9.158;2023-05-10T00:36:24;1999.90;;;999.90;;
14015;SDS011;7083;48.854;9.158;2023-05-10T00:38:52;1999.90;;;999.90;;
14015;SDS011;7083;48.854;9.158;2023-05-10T00:41:19;1999.90;;;999.90;;
14015;SDS011;7083;48.854;9.158;2023-05-10T00:43:48;1999.90;;;999.90;;
14015;SDS011;7083;48.854;9.158;2023-05-10T00:46:15;1999.90;;;999.90;;
14015;SDS011;7083;48.854;9.158;2023-05-10T00:48:43;1999.90;;;999.90;;
14015;SDS011;7083;48.854;9.158;2023-05-10T00:51:10;1999.90;;;999.90;;
14015;SDS011;7083;48.854;9.158;2023-05-10T00:53:37;1999.90;;;999.90;;
14015;SDS011;7083;48.854;9.158;2023-05-10T00:56:04;1999.90;;;999.90;;
14015;SDS011;7083;48.854;9.158;2023-05-10T00:58:31;1999.90;;;999.90;;
14015;SDS011;7083;48.854;9.158;2023-05-10T01:00:59;1999.90;;;999.90;;
14015;SDS011;7083;48.854;9.158;2023-05-10T01:03:27;1999.90;;;999.90;;
14015;SDS011;7083;48.854;9.158;2023-05-10T01:05:54;1999.90;;;999.90;;
14015;SDS011;7083;48.854;9.158;2023-05-10T01:08:21;1999.90;;;999.90;;
14015;SDS011;7083;48.854;9.158;2023-05-10T01:10:48;1999.90;;;999.90;;
14015;SDS011;7083;48.854;9.158;2023-05-10T01:13:18;1999.90;;;999.90;;
14015;SDS011;7083;48.854;9.158;2023-05-10T01:15:50;1999.90;;;999.90;;
14015;SDS011;7083;48.854;9.158;2023-05-10T01:18:18;1999.90;;;999.90;;
14015;SDS011;7083;48.854;9.158;2023-05-10T01:20:48;1999.90;;;999.90;;
14015;SDS011;7083;48.854;9.158;2023-05-10T01:23:23;1999.90;;;999.90;;
14015;SDS011;7083;48.854;9.158;2023-05-10T01:26:01;1999.90;;;999.90;;
14015;SDS011;7083;48.854;9.158;2023-05-10T01:31:22;1999.90;;;999.90;;
14015;SDS011;7083;48.854;9.158;2023-05-10T01:33:52;1999.90;;;999.90;;
14015;SDS011;7083;48.854;9.158;2023-05-10T01:36:23;1999.90;;;999.90;;
14015;SDS011;7083;48.854;9.158;2023-05-10T01:38:55;1999.90;;;999.90;;
14015;SDS011;7083;48.854;9.158;2023-05-10T01:41:24;1999.90;;;999.90;;
14015;SDS011;7083;48.854;9.158;2023-05-10T01:43:55;1999.90;;;999.90;;
14015;SDS011;7083;48.854;9.158;2023-05-10T01:46:26;1999.90;;;999.90;;
14015;SDS011;7083;48.854;9.158;2023-05-10T01:48:55;1999.90;;;999.90;;
14015;SDS011;7083;48.854;9.158;2023-05-10T01:51:23;1999.90;;;999.90;;
14015;SDS011;7083;48.854;9.158;2023-05-10T01:53:51;1999.90;;;999.90;;
14015;SDS011;7083;48.854;9.158;2023-05-10T01:56:20;1999.90;;;999.90;;
14015;SDS011;7083;48.854;9.158;2023-05-10T01:58:50;1999.90;;;999.90;;
14015;SDS011;7083;48.854;9.158;2023-05-10T02:01:18;1999.90;;;999.90;;
14015;SDS011;7083;48.854;9.158;2023-05-10T02:03:47;1999.90;;;999.90;;
14015;SDS011;7083;48.854;9.158;2023-05-10T02:06:16;1999.90;;;999.90;;
14015;SDS011;7083;48.854;9.158;2023-05-10T02:08:45;1999.90;;;999.90;;
14015;SDS011;7083;48.854;9.158;2023-05-10T02:11:12;1999.90;;;999.90;;
14015;SDS011;7083;48.854;9.158;2023-05-10T02:13:39;1999.90;;;999.90;;
14015;SDS011;7083;48.854;9.158;2023-05-10T02:16:08;1999.90;;;999.90;;
14015;SDS011;7083;48.854;9.158;2023-05-10T02:18:35;1999.90;;;999.90;;
14015;SDS011;7083;48.854;9.158;2023-05-10T02:21:03;1999.90;;;999.90;;
14015;SDS011;7083;48.854;9.158;2023-05-10T02:23:31;1999.90;;;999.90;;
14015;SDS011;7083;48.854;9.158;2023-05-10T02:25:58;1999.90;;;999.90;;
14015;SDS011;7083;48.854;9.158;2023-05-10T02:28:26;1999.90;;;999.90;;
14015;SDS011;7083;48.854;9.158;2023-05-10T02:30:55;1999.90;;;999.90;;
14015;SDS011;7083;48.854;9.158;2023-05-10T02:33:22;1999.90;;;999.90;;
14015;SDS011;7083;48.854;9.158;2023-05-10T02:35:50;1999.90;;;999.90;;
14015;SDS011;7083;48.854;9.158;2023-05-10T02:38:18;1999.90;;;999.90;;
14015;SDS011;7083;48.854;9.158;2023-05-10T02:40:46;1999.90;;;999.90;;
14015;SDS011;7083;48.854;9.158;2023-05-10T02:43:14;1999.90;;;999.90;;
14015;SDS011;7083;48.854;9.158;2023-05-10T02:45:42;1999.90;;;999.90;;
14015;SDS011;7083;48.854;9.158;2023-05-10T02:48:09;1999.90;;;999.90;;
14015;SDS011;7083;48.854;9.158;2023-05-10T02:50:37;1999.90;;;999.90;;
14015;SDS011;7083;48.854;9.158;2023-05-10T02:53:09;1999.90;;;999.90;;
14015;SDS011;7083;48.854;9.158;2023-05-10T02:55:37;1999.90;;;999.90;;
14015;SDS011;7083;48.854;9.158;2023-05-10T02:58:06;1999.90;;;999.90;;
14015;SDS011;7083;48.854;9.158;2023-05-10T03:00:33;1999.90;;;999.90;;
14015;SDS011;7083;48.854;9.158;2023-05-10T03:03:01;1999.90;;;999.90;;
14015;SDS011;7083;48.854;9.158;2023-05-10T03:05:28;1999.90;;;999.90;;
14015;SDS011;7083;48.854;9.158;2023-05-10T03:07:55;1999.90;;;999.90;;
14015;SDS011;7083;48.854;9.158;2023-05-10T03:10:23;1999.90;;;999.90;;
14015;SDS011;7083;48.854;9.158;2023-05-10T03:12:56;1999.90;;;999.90;;
14015;SDS011;7083;48.854;9.158;2023-05-10T03:15:28;1999.90;;;999.90;;
14015;SDS011;7083;48.854;9.158;2023-05-10T03:18:01;1999.90;;;999.90;;
14015;SDS011;7083;48.854;9.158;2023-05-10T03:20:29;1999.90;;;999.90;;
14015;SDS011;7083;48.854;9.158;2023-05-10T03:23:02;1999.90;;;999.90;;
14015;SDS011;7083;48.854;9.158;2023-05-10T03:25:29;1999.90;;;999.90;;
14015;SDS011;7083;48.854;9.158;2023-05-10T03:27:57;1999.90;;;999.90;;
14015;SDS011;7083;48.854;9.158;2023-05-10T03:30:25;1999.90;;;999.90;;
14015;SDS011;7083;48.854;9.158;2023-05-10T03:32:54;1999.90;;;999.90;;
14015;SDS011;7083;48.854;9.158;2023-05-10T03:35:21;1999.90;;;999.90;;
14015;SDS011;7083;48.854;9.158;2023-05-10T03:37:48;1999.90;;;999.90;;
14015;SDS011;7083;48.854;9.158;2023-05-10T03:40:15;1999.90;;;999.90;;
14015;SDS011;7083;48.854;9.158;2023-05-10T03:42:42;1999.90;;;999.90;;
14015;SDS011;7083;48.854;9.158;2023-05-10T03:45:10;1999.90;;;999.90;;
14015;SDS011;7083;48.854;9.158;2023-05-10T03:47:37;1999.90;;;999.90;;
14015;SDS011;7083;48.854;9.158;2023-05-10T03:50:06;1999.90;;;999.90;;
14015;SDS011;7083;48.854;9.158;2023-05-10T03:52:33;1999.90;;;999.90;;
14015;SDS011;7083;48.854;9.158;2023-05-10T03:55:00;1999.90;;;999.90;;
14015;SDS011;7083;48.854;9.158;2023-05-10T03:57:28;1999.90;;;999.90;;
14015;SDS011;7083;48.854;9.158;2023-05-10T03:59:55;1999.90;;;999.90;;
14015;SDS011;7083;48.854;9.158;2023-05-10T04:02:22;1999.90;;;999.90;;
14015;SDS011;7083;48.854;9.158;2023-05-10T04:04:49;1999.90;;;999.90;;
14015;SDS011;7083;48.854;9.158;2023-05-10T04:07:17;1999.90;;;999.90;;
14015;SDS011;7083;48.854;9.158;2023-05-10T04:09:44;1999.90;;;999.90;;
14015;SDS011;7083;48.854;9.158;2023-05-10T04:12:11;1999.90;;;999.90;;
14015;SDS011;7083;48.854;9.158;2023-05-10T04:14:39;1999.90;;;999.90;;
14015;SDS011;7083;48.854;9.158;2023-05-10T04:17:06;1999.90;;;999.90;;
14015;SDS011;7083;48.854;9.158;2023-05-10T04:19:33;1999.90;;;999.90;;
14015;SDS011;7083;48.854;9.158;2023-05-10T04:22:00;1999.90;;;999.90;;
14015;SDS011;7083;48.854;9.158;2023-05-10T04:24:30;1999.90;;;999.90;;
14015;SDS011;7083;48.854;9.158;2023-05-10T04:26:57;1999.90;;;999.90;;
14015;SDS011;7083;48.854;9.158;2023-05-10T04:29:24;1999.90;;;999.90;;
14015;SDS011;7083;48.854;9.158;2023-05-10T04:31:51;1999.90;;;999.90;;
14015;SDS011;7083;48.854;9.158;2023-05-10T04:34:19;1999.90;;;999.90;;
14015;SDS011;7083;48.854;9.158;2023-05-10T04:36:46;1999.90;;;999.90;;
14015;SDS011;7083;48.854;9.158;2023-05-10T04:39:13;1999.90;;;999.90;;
14015;SDS011;7083;48.854;9.158;2023-05-10T04:41:42;1999.90;;;999.90;;
14015;SDS011;7083;48.854;9.158;2023-05-10T04:44:09;1999.90;;;999.90;;
14015;SDS011;7083;48.854;9.158;2023-05-10T04:46:36;1999.90;;;999.90;;
14015;SDS011;7083;48.854;9.158;2023-05-10T04:49:03;1999.90;;;999.90;;
14015;SDS011;7083;48.854;9.158;2023-05-10T04:51:30;1999.90;;;999.90;;
14015;SDS011;7083;48.854;9.158;2023-05-10T04:53:57;1999.90;;;999.90;;
14015;SDS011;7083;48.854;9.158;2023-05-10T04:56:24;1999.90;;;999.90;;
14015;SDS011;7083;48.854;9.158;2023-05-10T04:58:53;1999.90;;;999.90;;
14015;SDS011;7083;48.854;9.158;2023-05-10T05:01:20;1999.90;;;999.90;;
14015;SDS011;7083;48.854;9.158;2023-05-10T05:03:48;1999.90;;;999.90;;
14015;SDS011;7083;48.854;9.158;2023-05-10T05:06:15;1999.90;;;999.90;;
14015;SDS011;7083;48.854;9.158;2023-05-10T05:08:42;1999.90;;;999.90;;
14015;SDS011;7083;48.854;9.158;2023-05-10T05:11:09;1999.90;;;999.90;;
14015;SDS011;7083;48.854;9.158;2023-05-10T05:13:36;1999.90;;;999.90;;
14015;SDS011;7083;48.854;9.158;2023-05-10T05:16:05;1999.90;;;999.90;;
14015;SDS011;7083;48.854;9.158;2023-05-10T05:18:32;1999.90;;;999.90;;
14015;SDS011;7083;48.854;9.158;2023-05-10T05:20:59;1999.90;;;999.90;;
14015;SDS011;7083;48.854;9.158;2023-05-10T05:23:26;1999.90;;;999.90;;
14015;SDS011;7083;48.854;9.158;2023-05-10T05:25:53;1999.90;;;999.90;;
14015;SDS011;7083;48.854;9.158;2023-05-10T05:28:20;1999.90;;;999.90;;
14015;SDS011;7083;48.854;9.158;2023-05-10T05:30:47;1999.90;;;999.90;;
14015;SDS011;7083;48.854;9.158;2023-05-10T05:33:16;1999.90;;;999.90;;
14015;SDS011;7083;48.854;9.158;2023-05-10T05:35:43;1999.90;;;999.90;;
14015;SDS011;7083;48.854;9.158;2023-05-10T05:38:15;1999.90;;;999.90;;
14015;SDS011;7083;48.854;9.158;2023-05-10T05:40:42;1999.90;;;999.90;;
14015;SDS011;7083;48.854;9.158;2023-05-10T05:43:10;1999.90;;;999.90;;
14015;SDS011;7083;48.854;9.158;2023-05-10T05:45:37;1999.90;;;999.90;;
14015;SDS011;7083;48.854;9.158;2023-05-10T05:48:04;1999.90;;;999.90;;
14015;SDS011;7083;48.854;9.158;2023-05-10T05:50:33;1999.90;;;999.90;;
14015;SDS011;7083;48.854;9.158;2023-05-10T05:53:00;1999.90;;;999.90;;
14015;SDS011;7083;48.854;9.158;2023-05-10T05:55:27;1999.90;;;999.90;;
14015;SDS011;7083;48.854;9.158;2023-05-10T05:57:56;1999.90;;;999.90;;
14015;SDS011;7083;48.854;9.158;2023-05-10T06:00:23;1999.90;;;999.90;;
14015;SDS011;7083;48.854;9.158;2023-05-10T06:02:50;1999.90;;;999.90;;
14015;SDS011;7083;48.854;9.158;2023-05-10T06:05:17;1999.90;;;999.90;;
14015;SDS011;7083;48.854;9.158;2023-05-10T06:07:46;1999.90;;;999.90;;
14015;SDS011;7083;48.854;9.158;2023-05-10T06:10:13;1999.90;;;999.90;;
14015;SDS011;7083;48.854;9.158;2023-05-10T06:12:40;1999.90;;;999.90;;
14015;SDS011;7083;48.854;9.158;2023-05-10T06:15:08;1999.90;;;999.90;;
14015;SDS011;7083;48.854;9.158;2023-05-10T06:17:35;1999.90;;;999.90;;
14015;SDS011;7083;48.854;9.158;2023-05-10T06:20:04;1999.90;;;999.90;;
14015;SDS011;7083;48.854;9.158;2023-05-10T06:22:31;1999.90;;;999.90;;
14015;SDS011;7083;48.854;9.158;2023-05-10T06:24:59;1999.90;;;999.90;;
14015;SDS011;7083;48.854;9.158;2023-05-10T06:27:27;1999.90;;;999.90;;
14015;SDS011;7083;48.854;9.158;2023-05-10T06:29:54;1999.90;;;999.90;;
14015;SDS011;7083;48.854;9.158;2023-05-10T06:32:21;1999.90;;;999.90;;
14015;SDS011;7083;48.854;9.158;2023-05-10T06:34:48;1999.90;;;999.90;;
14015;SDS011;7083;48.854;9.158;2023-05-10T06:37:15;1999.90;;;999.90;;
14015;SDS011;7083;48.854;9.158;2023-05-10T06:39:42;1999.90;;;999.90;;
14015;SDS011;7083;48.854;9.158;2023-05-10T06:42:10;1999.90;;;999.90;;
14015;SDS011;7083;48.854;9.158;2023-05-10T06:44:37;1999.90;;;999.90;;
14015;SDS011;7083;48.854;9.158;2023-05-10T06:47:04;1999.90;;;999.90;;
14015;SDS011;7083;48.854;9.158;2023-05-10T06:49:31;1999.90;;;999.90;;
14015;SDS011;7083;48.854;9.158;2023-05-10T06:51:58;1999.90;;;999.90;;
14015;SDS011;7083;48.854;9.158;2023-05-10T06:54:25;1999.90;;;999.90;;
14015;SDS011;7083;48.854;9.158;2023-05-10T06:56:52;1999.90;;;999.90;;
14015;SDS011;7083;48.854;9.158;2023-05-10T06:59:20;1999.90;;;999.90;;
14015;SDS011;7083;48.854;9.158;2023-05-10T07:01:47;1999.90;;;999.90;;
14015;SDS011;7083;48.854;9.158;2023-05-10T07:04:14;1999.90;;;999.90;;
14015;SDS011;7083;48.854;9.158;2023-05-10T07:09:10;1999.90;;;999.90;;
14015;SDS011;7083;48.854;9.158;2023-05-10T07:11:38;1999.90;;;999.90;;
14015;SDS011;7083;48.854;9.158;2023-05-10T07:14:05;1999.90;;;999.90;;
14015;SDS011;7083;48.854;9.158;2023-05-10T07:16:33;1999.90;;;999.90;;
14015;SDS011;7083;48.854;9.158;2023-05-10T07:19:01;1999.90;;;999.90;;
14015;SDS011;7083;48.854;9.158;2023-05-10T07:21:30;1999.90;;;999.90;;
14015;SDS011;7083;48.854;9.158;2023-05-10T07:23:57;1999.90;;;999.90;;
14015;SDS011;7083;48.854;9.158;2023-05-10T07:26:24;1999.90;;;999.90;;
14015;SDS011;7083;48.854;9.158;2023-05-10T07:28:51;1999.90;;;999.90;;
14015;SDS011;7083;48.854;9.158;2023-05-10T07:31:17;1999.90;;;999.90;;
14015;SDS011;7083;48.854;9.158;2023-05-10T07:33:45;1999.90;;;999.90;;
14015;SDS011;7083;48.854;9.158;2023-05-10T07:36:12;1999.90;;;999.90;;
14015;SDS011;7083;48.854;9.158;2023-05-10T07:38:39;1999.90;;;999.90;;
14015;SDS011;7083;48.854;9.158;2023-05-10T07:41:06;493.23;;;468.90;;
14015;SDS011;7083;48.854;9.158;2023-05-10T07:43:33;1999.90;;;999.90;;
14015;SDS011;7083;48.854;9.158;2023-05-10T07:46:00;1999.90;;;999.90;;
14015;SDS011;7083;48.854;9.158;2023-05-10T07:48:27;1999.90;;;999.90;;
14015;SDS011;7083;48.854;9.158;2023-05-10T07:50:55;1999.90;;;999.90;;
14015;SDS011;7083;48.854;9.158;2023-05-10T07:53:22;1999.90;;;999.90;;
14015;SDS011;7083;48.854;9.158;2023-05-10T07:55:49;1999.90;;;999.90;;
14015;SDS011;7083;48.854;9.158;2023-05-10T07:58:16;1999.90;;;999.90;;
14015;SDS011;7083;48.854;9.158;2023-05-10T08:00:43;1999.90;;;999.90;;
14015;SDS011;7083;48.854;9.158;2023-05-10T08:03:09;1999.90;;;999.90;;
14015;SDS011;7083;48.854;9.158;2023-05-10T08:05:36;1999.90;;;999.90;;
14015;SDS011;7083;48.854;9.158;2023-05-10T08:08:05;1999.90;;;999.90;;
14015;SDS011;7083;48.854;9.158;2023-05-10T08:10:32;1999.90;;;999.90;;
14015;SDS011;7083;48.854;9.158;2023-05-10T08:12:59;1999.90;;;999.90;;
14015;SDS011;7083;48.854;9.158;2023-05-10T08:15:26;404.10;;;386.00;;
14015;SDS011;7083;48.854;9.158;2023-05-10T08:17:53;410.43;;;392.53;;
14015;SDS011;7083;48.854;9.158;2023-05-10T08:20:20;418.07;;;399.10;;
14015;SDS011;7083;48.854;9.158;2023-05-10T08:22:47;1999.90;;;999.90;;
14015;SDS011;7083;48.854;9.158;2023-05-10T08:25:16;1999.90;;;999.90;;
14015;SDS011;7083;48.854;9.158;2023-05-10T08:27:43;1999.90;;;999.90;;
14015;SDS011;7083;48.854;9.158;2023-05-10T08:30:10;1999.90;;;999.90;;
14015;SDS011;7083;48.854;9.158;2023-05-10T08:32:37;1999.90;;;999.90;;
14015;SDS011;7083;48.854;9.158;2023-05-10T08:35:05;1999.90;;;999.90;;
14015;SDS011;7083;48.854;9.158;2023-05-10T08:37:32;1999.90;;;999.90;;
14015;SDS011;7083;48.854;9.158;2023-05-10T08:39:59;1999.90;;;999.90;;
14015;SDS011;7083;48.854;9.158;2023-05-10T08:42:28;1999.90;;;999.90;;
14015;SDS011;7083;48.854;9.158;2023-05-10T08:44:57;1999.90;;;999.90;;
14015;SDS011;7083;48.854;9.158;2023-05-10T08:47:24;1999.90;;;999.90;;
14015;SDS011;7083;48.854;9.158;2023-05-10T08:49:51;1999.90;;;999.90;;
14015;SDS011;7083;48.854;9.158;2023-05-10T08:52:18;1500.77;;;824.57;;
14015;SDS011;7083;48.854;9.158;2023-05-10T08:54:46;1999.90;;;999.90;;
14015;SDS011;7083;48.854;9.158;2023-05-10T08:57:13;422.73;;;402.63;;
14015;SDS011;7083;48.854;9.158;2023-05-10T08:59:41;358.67;;;343.40;;
14015;SDS011;7083;48.854;9.158;2023-05-10T09:02:09;565.23;;;536.30;;
14015;SDS011;7083;48.854;9.158;2023-05-10T09:04:36;454.30;;;433.97;;
14015;SDS011;7083;48.854;9.158;2023-05-10T09:07:03;435.70;;;415.83;;
14015;SDS011;7083;48.854;9.158;2023-05-10T09:09:31;1468.80;;;796.37;;
14015;SDS011;7083;48.854;9.158;2023-05-10T09:11:58;397.67;;;379.73;;
14015;SDS011;7083;48.854;9.158;2023-05-10T09:14:25;1487.00;;;813.37;;
14015;SDS011;7083;48.854;9.158;2023-05-10T09:16:53;1999.90;;;999.90;;
14015;SDS011;7083;48.854;9.158;2023-05-10T09:19:20;1999.90;;;999.90;;
14015;SDS011;7083;48.854;9.158;2023-05-10T09:21:47;1999.90;;;999.90;;
14015;SDS011;7083;48.854;9.158;2023-05-10T09:24:15;1999.90;;;999.90;;
14015;SDS011;7083;48.854;9.158;2023-05-10T09:26:48;1999.90;;;999.90;;
14015;SDS011;7083;48.854;9.158;2023-05-10T09:29:14;1999.90;;;999.90;;
14015;SDS011;7083;48.854;9.158;2023-05-10T09:31:45;1999.90;;;999.90;;
14015;SDS011;7083;48.854;9.158;2023-05-10T09:34:18;1999.90;;;999.90;;
14015;SDS011;7083;48.854;9.158;2023-05-10T09:36:52;1999.90;;;999.90;;
14015;SDS011;7083;48.854;9.158;2023-05-10T09:39:19;1999.90;;;999.90;;
14015;SDS011;7083;48.854;9.158;2023-05-10T09:41:46;1999.90;;;999.90;;
14015;SDS011;7083;48.854;9.158;2023-05-10T09:44:16;1999.90;;;999.90;;
14015;SDS011;7083;48.854;9.158;2023-05-10T09:46:48;1999.90;;;999.90;;
14015;SDS011;7083;48.854;9.158;2023-05-10T09:49:15;1999.90;;;999.90;;
14015;SDS011;7083;48.854;9.158;2023-05-10T09:51:43;1999.90;;;999.90;;
14015;SDS011;7083;48.854;9.158;2023-05-10T09:54:10;1999.90;;;999.90;;
14015;SDS011;7083;48.854;9.158;2023-05-10T09:56:38;1999.90;;;999.90;;
14015;SDS011;7083;48.854;9.158;2023-05-10T09:59:06;1999.90;;;999.90;;
14015;SDS011;7083;48.854;9.158;2023-05-10T10:01:33;1504.13;;;829.23;;
14015;SDS011;7083;48.854;9.158;2023-05-10T10:04:02;505.70;;;481.70;;
14015;SDS011;7083;48.854;9.158;2023-05-10T10:06:34;1999.90;;;999.90;;
14015;SDS011;7083;48.854;9.158;2023-05-10T10:09:04;1999.90;;;999.90;;
14015;SDS011;7083;48.854;9.158;2023-05-10T10:11:31;1999.90;;;999.90;;
14015;SDS011;7083;48.854;9.158;2023-05-10T10:13:59;1999.90;;;999.90;;
14015;SDS011;7083;48.854;9.158;2023-05-10T10:16:27;1999.90;;;999.90;;
14015;SDS011;7083;48.854;9.158;2023-05-10T10:18:55;1999.90;;;999.90;;
14015;SDS011;7083;48.854;9.158;2023-05-10T10:21:22;1999.90;;;999.90;;
14015;SDS011;7083;48.854;9.158;2023-05-10T10:23:48;1999.90;;;999.90;;
14015;SDS011;7083;48.854;9.158;2023-05-10T10:26:17;1999.90;;;999.90;;
14015;SDS011;7083;48.854;9.158;2023-05-10T10:28:48;1999.90;;;999.90;;
14015;SDS011;7083;48.854;9.158;2023-05-10T10:31:23;1999.90;;;999.90;;
14015;SDS011;7083;48.854;9.158;2023-05-10T10:33:59;1999.90;;;999.90;;
14015;SDS011;7083;48.854;9.158;2023-05-10T10:36:27;1999.90;;;999.90;;
14015;SDS011;7083;48.854;9.158;2023-05-10T10:38:58;1999.90;;;999.90;;
14015;SDS011;7083;48.854;9.158;2023-05-10T10:41:31;1999.90;;;999.90;;
14015;SDS011;7083;48.854;9.158;2023-05-10T10:47:01;1999.90;;;999.90;;
14015;SDS011;7083;48.854;9.158;2023-05-10T10:49:30;1999.90;;;999.90;;
14015;SDS011;7083;48.854;9.158;2023-05-10T10:54:52;1999.90;;;999.90;;
14015;SDS011;7083;48.854;9.158;2023-05-10T10:57:22;1999.90;;;999.90;;
14015;SDS011;7083;48.854;9.158;2023-05-10T10:59:48;1999.90;;;999.90;;
14015;SDS011;7083;48.854;9.158;2023-05-10T11:02:32;1999.90;;;999.90;;
14015;SDS011;7083;48.854;9.158;2023-05-10T11:05:00;1999.90;;;999.90;;
14015;SDS011;7083;48.854;9.158;2023-05-10T11:07:52;1999.90;;;999.90;;
14015;SDS011;7083;48.854;9.158;2023-05-10T11:10:19;1999.90;;;999.90;;
14015;SDS011;7083;48.854;9.158;2023-05-10T11:12:54;1999.90;;;999.90;;
14015;SDS011;7083;48.854;9.158;2023-05-10T11:15:29;1999.90;;;999.90;;
14015;SDS011;7083;48.854;9.158;2023-05-10T11:17:56;1999.90;;;999.90;;
14015;SDS011;7083;48.854;9.158;2023-05-10T11:20:23;1999.90;;;999.90;;
14015;SDS011;7083;48.854;9.158;2023-05-10T11:22:58;1999.90;;;999.90;;
14015;SDS011;7083;48.854;9.158;2023-05-10T11:25:40;1999.90;;;999.90;;
14015;SDS011;7083;48.854;9.158;2023-05-10T11:28:09;1999.90;;;999.90;;
14015;SDS011;7083;48.854;9.158;2023-05-10T11:30:36;1999.90;;;999.90;;
14015;SDS011;7083;48.854;9.158;2023-05-10T11:33:04;1999.90;;;999.90;;
14015;SDS011;7083;48.854;9.158;2023-05-10T11:35:36;1999.90;;;999.90;;
14015;SDS011;7083;48.854;9.158;2023-05-10T11:38:05;1999.90;;;999.90;;
14015;SDS011;7083;48.854;9.158;2023-05-10T11:40:32;1999.90;;;999.90;;
14015;SDS011;7083;48.854;9.158;2023-05-10T11:42:59;1999.90;;;999.90;;
14015;SDS011;7083;48.854;9.158;2023-05-10T11:45:27;1999.90;;;999.90;;
14015;SDS011;7083;48.854;9.158;2023-05-10T11:47:54;1999.90;;;999.90;;
14015;SDS011;7083;48.854;9.158;2023-05-10T11:50:21;1999.90;;;999.90;;
14015;SDS011;7083;48.854;9.158;2023-05-10T11:52:50;1999.90;;;999.90;;
14015;SDS011;7083;48.854;9.158;2023-05-10T11:55:17;1999.90;;;999.90;;
14015;SDS011;7083;48.854;9.158;2023-05-10T11:57:44;1999.90;;;999.90;;
14015;SDS011;7083;48.854;9.158;2023-05-10T12:00:11;1999.90;;;999.90;;
14015;SDS011;7083;48.854;9.158;2023-05-10T12:02:39;1999.90;;;999.90;;
14015;SDS011;7083;48.854;9.158;2023-05-10T12:05:06;1999.90;;;999.90;;
14015;SDS011;7083;48.854;9.158;2023-05-10T12:07:34;1999.90;;;999.90;;
14015;SDS011;7083;48.854;9.158;2023-05-10T12:10:07;1999.90;;;999.90;;
14015;SDS011;7083;48.854;9.158;2023-05-10T12:12:37;1999.90;;;999.90;;
14015;SDS011;7083;48.854;9.158;2023-05-10T12:15:05;1999.90;;;999.90;;
14015;SDS011;7083;48.854;9.158;2023-05-10T12:17:37;1999.90;;;999.90;;
14015;SDS011;7083;48.854;9.158;2023-05-10T12:20:15;1999.90;;;999.90;;
14015;SDS011;7083;48.854;9.158;2023-05-10T12:22:49;1999.90;;;999.90;;
14015;SDS011;7083;48.854;9.158;2023-05-10T12:25:17;1999.90;;;999.90;;
14015;SDS011;7083;48.854;9.158;2023-05-10T12:27:48;1999.90;;;999.90;;
14015;SDS011;7083;48.854;9.158;2023-05-10T12:30:20;1999.90;;;999.90;;
14015;SDS011;7083;48.854;9.158;2023-05-10T12:32:47;1999.90;;;999.90;;
14015;SDS011;7083;48.854;9.158;2023-05-10T12:35:16;1999.90;;;999.90;;
14015;SDS011;7083;48.854;9.158;2023-05-10T12:37:45;1999.90;;;999.90;;
14015;SDS011;7083;48.854;9.158;2023-05-10T12:40:12;1999.90;;;999.90;;
14015;SDS011;7083;48.854;9.158;2023-05-10T12:45:06;1999.90;;;999.90;;
14015;SDS011;7083;48.854;9.158;2023-05-10T12:47:34;1999.90;;;999.90;;
14015;SDS011;7083;48.854;9.158;2023-05-10T12:50:02;1999.90;;;999.90;;
14015;SDS011;7083;48.854;9.158;2023-05-10T12:52:31;1999.90;;;999.90;;
14015;SDS011;7083;48.854;9.158;2023-05-10T12:54:58;1999.90;;;999.90;;
14015;SDS011;7083;48.854;9.158;2023-05-10T12:57:24;1999.90;;;999.90;;
14015;SDS011;7083;48.854;9.158;2023-05-10T12:59:51;1999.90;;;999.90;;
14015;SDS011;7083;48.854;9.158;2023-05-10T13:02:18;1999.90;;;999.90;;
14015;SDS011;7083;48.854;9.158;2023-05-10T13:04:46;1999.90;;;999.90;;
14015;SDS011;7083;48.854;9.158;2023-05-10T13:07:13;1999.90;;;999.90;;
14015;SDS011;7083;48.854;9.158;2023-05-10T13:09:41;1999.90;;;999.90;;
14015;SDS011;7083;48.854;9.158;2023-05-10T13:12:08;1999.90;;;999.90;;
14015;SDS011;7083;48.854;9.158;2023-05-10T13:14:35;1999.90;;;999.90;;
14015;SDS011;7083;48.854;9.158;2023-05-10T13:17:01;1999.90;;;999.90;;
14015;SDS011;7083;48.854;9.158;2023-05-10T13:19:28;1999.90;;;999.90;;
14015;SDS011;7083;48.854;9.158;2023-05-10T13:21:55;1999.90;;;999.90;;
14015;SDS011;7083;48.854;9.158;2023-05-10T13:26:49;1999.90;;;999.90;;
14015;SDS011;7083;48.854;9.158;2023-05-10T13:29:16;1999.90;;;999.90;;
14015;SDS011;7083;48.854;9.158;2023-05-10T13:31:43;1999.90;;;999.90;;
14015;SDS011;7083;48.854;9.158;2023-05-10T13:34:09;1999.90;;;999.90;;
14015;SDS011;7083;48.854;9.158;2023-05-10T13:36:36;1999.90;;;999.90;;
14015;SDS011;7083;48.854;9.158;2023-05-10T13:39:03;1999.90;;;999.90;;
14015;SDS011;7083;48.854;9.158;2023-05-10T13:41:30;1999.90;;;999.90;;
14015;SDS011;7083;48.854;9.158;2023-05-10T13:43:58;1999.90;;;999.90;;
14015;SDS011;7083;48.854;9.158;2023-05-10T13:46:24;1999.90;;;999.90;;
14015;SDS011;7083;48.854;9.158;2023-05-10T13:48:51;1999.90;;;999.90;;
14015;SDS011;7083;48.854;9.158;2023-05-10T13:51:18;1999.90;;;999.90;;
14015;SDS011;7083;48.854;9.158;2023-05-10T13:53:45;1999.90;;;999.90;;
14015;SDS011;7083;48.854;9.158;2023-05-10T13:56:12;1999.90;;;999.90;;
14015;SDS011;7083;48.854;9.158;2023-05-10T13:58:39;1999.90;;;999.90;;
14015;SDS011;7083;48.854;9.158;2023-05-10T14:01:07;1999.90;;;999.90;;
14015;SDS011;7083;48.854;9.158;2023-05-10T14:03:34;1999.90;;;999.90;;
14015;SDS011;7083;48.854;9.158;2023-05-10T14:06:01;1999.90;;;999.90;;
14015;SDS011;7083;48.854;9.158;2023-05-10T14:08:27;1999.90;;;999.90;;
14015;SDS011;7083;48.854;9.158;2023-05-10T14:10:54;1999.90;;;999.90;;
14015;SDS011;7083;48.854;9.158;2023-05-10T14:13:22;1999.90;;;999.90;;
14015;SDS011;7083;48.854;9.158;2023-05-10T14:15:49;1999.90;;;999.90;;
14015;SDS011;7083;48.854;9.158;2023-05-10T14:18:17;1999.90;;;999.90;;